Time;durP1;ratioP1;P1;durP2;ratioP2;P2;SDS_P1;SDS_P2;PMS_P1;PMS_P2;Temp;Humidity;BMP_temperature;BMP_pressure;BME280_temperature;BME280_humidity;BME280_pressure;Samples;Min_cycle;Max_cycle;Signal;HPM_P1;HPM_P2
2023/04/20 00:01:46;;;;;;;9.15;4.20;;;;;;;;;;5046036;28;20045;-75
2023/04/20 00:04:14;;;;;;;6.10;3.25;;;;;;;;;;5030316;28;20037;-74
2023/04/20 00:06:41;;;;;;;4.28;3.13;;;;;;;;;;5030274;28;20053;-74
2023/04/20 00:09:07;;;;;;;7.03;3.35;;;;;;;;;;5036495;28;20693;-74
2023/04/20 00:11:33;;;;;;;4.63;3.17;;;;;;;;;;5030375;28;20048;-73
2023/04/20 00:13:59;;;;;;;11.20;3.20;;;;;;;;;;5030361;28;20033;-74
2023/04/20 00:16:25;;;;;;;7.88;2.80;;;;;;;;;;5029506;28;20037;-74
2023/04/20 00:18:51;;;;;;;6.13;3.00;;;;;;;;;;5028359;28;20047;-74
2023/04/20 00:21:20;;;;;;;7.88;3.20;;;;;;;;;;5045710;28;20052;-75
2023/04/20 00:23:47;;;;;;;6.05;3.13;;;;;;;;;;5030351;28;20119;-74
2023/04/20 00:26:12;;;;;;;5.30;2.90;;;;;;;;;;5029030;28;20057;-75
2023/04/20 00:28:39;;;;;;;6.20;3.20;;;;;;;;;;5048001;28;20795;-74
2023/04/20 00:31:05;;;;;;;6.50;2.97;;;;;;;;;;5029388;28;20123;-75
2023/04/20 00:33:31;;;;;;;4.97;3.33;;;;;;;;;;5029845;28;20037;-74
2023/04/20 00:35:57;;;;;;;8.48;3.45;;;;;;;;;;5029566;28;20047;-74
2023/04/20 00:38:23;;;;;;;5.78;3.20;;;;;;;;;;5029347;28;20492;-74
2023/04/20 00:40:52;;;;;;;7.43;3.38;;;;;;;;;;5029690;28;20051;-74
2023/04/20 00:43:18;;;;;;;5.88;3.22;;;;;;;;;;5028539;28;20126;-74
2023/04/20 00:45:45;;;;;;;6.38;3.25;;;;;;;;;;5029790;28;20080;-75
2023/04/20 00:48:11;;;;;;;7.03;3.03;;;;;;;;;;5028416;28;20072;-74
2023/04/20 00:50:38;;;;;;;7.60;3.13;;;;;;;;;;5029401;28;20037;-74
2023/04/20 00:53:05;;;;;;;8.35;3.13;;;;;;;;;;5029574;28;20045;-74
2023/04/20 00:55:31;;;;;;;4.82;2.92;;;;;;;;;;5029146;28;20072;-74
2023/04/20 00:57:57;;;;;;;4.15;3.05;;;;;;;;;;5029430;28;20122;-74
2023/04/20 01:00:24;;;;;;;7.55;3.20;;;;;;;;;;5027614;28;20049;-74
2023/04/20 01:02:50;;;;;;;9.75;3.20;;;;;;;;;;5012366;28;20080;-74
2023/04/20 01:05:16;;;;;;;5.72;3.10;;;;;;;;;;5028112;28;20418;-74
2023/04/20 01:07:42;;;;;;;7.00;3.13;;;;;;;;;;5046264;28;20692;-73
2023/04/20 01:10:08;;;;;;;7.75;3.25;;;;;;;;;;5028605;28;20033;-74
2023/04/20 01:12:35;;;;;;;5.90;2.85;;;;;;;;;;5028009;28;20624;-75
2023/04/20 01:15:02;;;;;;;5.07;2.65;;;;;;;;;;5029040;28;20093;-74
2023/04/20 01:17:28;;;;;;;8.05;3.00;;;;;;;;;;5046141;28;20045;-74
2023/04/20 01:19:54;;;;;;;4.82;2.63;;;;;;;;;;5029744;28;20048;-73
2023/04/20 01:22:20;;;;;;;6.78;2.60;;;;;;;;;;5045946;28;20052;-75
2023/04/20 01:24:47;;;;;;;5.75;2.53;;;;;;;;;;5046922;28;20057;-75
2023/04/20 01:27:16;;;;;;;5.05;2.40;;;;;;;;;;5028508;28;20043;-74
2023/04/20 01:29:42;;;;;;;7.03;2.78;;;;;;;;;;5028474;28;20128;-75
2023/04/20 01:32:08;;;;;;;5.80;2.40;;;;;;;;;;5027898;28;20045;-74
2023/04/20 01:34:34;;;;;;;5.85;2.70;;;;;;;;;;5028201;28;20103;-74
2023/04/20 01:37:00;;;;;;;3.85;2.53;;;;;;;;;;5028260;28;20508;-73
2023/04/20 01:39:27;;;;;;;7.28;2.58;;;;;;;;;;5027584;28;20040;-75
2023/04/20 01:41:53;;;;;;;7.32;2.28;;;;;;;;;;5045229;28;20546;-75
2023/04/20 01:44:19;;;;;;;5.28;2.60;;;;;;;;;;5028270;28;20041;-75
2023/04/20 01:46:45;;;;;;;6.82;2.90;;;;;;;;;;5027635;28;20083;-75
2023/04/20 01:49:11;;;;;;;10.52;2.75;;;;;;;;;;5028458;28;20072;-73
2023/04/20 01:51:37;;;;;;;3.47;2.78;;;;;;;;;;5037377;28;20044;-73
2023/04/20 01:54:03;;;;;;;8.85;2.83;;;;;;;;;;5046241;28;20044;-74
2023/04/20 01:56:30;;;;;;;6.53;2.80;;;;;;;;;;5026760;28;20053;-74
2023/04/20 01:58:56;;;;;;;6.28;2.60;;;;;;;;;;5028182;28;20048;-73
2023/04/20 02:01:22;;;;;;;7.00;3.08;;;;;;;;;;5026628;28;20045;-74
2023/04/20 02:03:48;;;;;;;8.63;2.95;;;;;;;;;;5028695;28;20499;-75
2023/04/20 02:06:14;;;;;;;5.88;2.55;;;;;;;;;;5027586;28;20049;-74
2023/04/20 02:08:40;;;;;;;7.60;2.85;;;;;;;;;;5027394;28;20043;-73
2023/04/20 02:11:06;;;;;;;5.55;2.90;;;;;;;;;;5028085;28;20052;-74
2023/04/20 02:13:32;;;;;;;8.52;2.88;;;;;;;;;;5026581;28;20519;-74
2023/04/20 02:15:58;;;;;;;5.22;2.90;;;;;;;;;;5028200;28;20033;-75
2023/04/20 02:18:24;;;;;;;6.15;2.97;;;;;;;;;;5026141;28;20045;-73
2023/04/20 02:20:50;;;;;;;10.80;3.70;;;;;;;;;;5027018;28;20041;-75
2023/04/20 02:23:16;;;;;;;6.78;2.97;;;;;;;;;;5026178;28;20505;-74
2023/04/20 02:25:42;;;;;;;6.22;2.92;;;;;;;;;;5027409;28;20599;-75
2023/04/20 02:28:09;;;;;;;12.63;3.08;;;;;;;;;;5045029;28;20043;-73
2023/04/20 02:30:35;;;;;;;5.13;2.90;;;;;;;;;;5025980;28;20048;-73
2023/04/20 02:33:01;;;;;;;8.30;3.33;;;;;;;;;;5028218;28;20043;-74
2023/04/20 02:35:27;;;;;;;6.47;3.05;;;;;;;;;;5026463;28;20045;-75
2023/04/20 02:37:53;;;;;;;6.72;3.00;;;;;;;;;;5011393;28;20044;-74
2023/04/20 02:40:19;;;;;;;7.90;2.97;;;;;;;;;;5026761;28;20045;-74
2023/04/20 02:42:45;;;;;;;8.15;3.15;;;;;;;;;;5045358;28;20083;-74
2023/04/20 02:45:11;;;;;;;5.70;2.63;;;;;;;;;;5027333;28;20044;-74
2023/04/20 02:47:37;;;;;;;6.63;2.90;;;;;;;;;;5026692;28;20428;-75
2023/04/20 02:50:03;;;;;;;8.82;3.13;;;;;;;;;;5043526;28;20066;-75
2023/04/20 02:52:29;;;;;;;10.35;3.40;;;;;;;;;;5043690;28;20451;-75
2023/04/20 02:54:55;;;;;;;5.25;2.88;;;;;;;;;;5027986;28;20037;-75
2023/04/20 02:57:21;;;;;;;5.07;2.85;;;;;;;;;;5026518;28;20497;-75
2023/04/20 02:59:47;;;;;;;7.75;2.70;;;;;;;;;;5045484;28;20047;-74
2023/04/20 03:02:13;;;;;;;5.13;2.65;;;;;;;;;;5025493;28;20037;-74
2023/04/20 03:04:39;;;;;;;8.00;3.38;;;;;;;;;;5027850;28;20057;-73
2023/04/20 03:07:06;;;;;;;6.35;2.90;;;;;;;;;;5009849;28;20040;-74
2023/04/20 03:09:32;;;;;;;5.38;2.70;;;;;;;;;;5044045;28;20052;-74
2023/04/20 03:11:58;;;;;;;11.18;3.33;;;;;;;;;;5044966;28;20110;-74
2023/04/20 03:14:24;;;;;;;4.75;2.58;;;;;;;;;;5025881;28;20408;-75
2023/04/20 03:16:50;;;;;;;7.03;2.92;;;;;;;;;;5026723;28;20505;-74
2023/04/20 03:19:16;;;;;;;6.85;3.10;;;;;;;;;;5025259;28;20060;-74
2023/04/20 03:21:43;;;;;;;7.80;2.78;;;;;;;;;;5026587;28;20516;-75
2023/04/20 03:24:09;;;;;;;9.23;2.92;;;;;;;;;;5026659;28;20068;-75
2023/04/20 03:26:35;;;;;;;5.53;3.20;;;;;;;;;;5026706;28;20049;-75
2023/04/20 03:29:01;;;;;;;3.80;2.72;;;;;;;;;;5047721;28;20048;-74
2023/04/20 03:31:27;;;;;;;4.65;3.03;;;;;;;;;;5029753;28;20043;-74
2023/04/20 03:33:53;;;;;;;6.53;3.00;;;;;;;;;;5031551;28;20045;-75
2023/04/20 03:36:19;;;;;;;5.15;2.72;;;;;;;;;;5030316;28;20048;-75
2023/04/20 03:38:45;;;;;;;5.35;2.90;;;;;;;;;;5031152;28;20583;-75
2023/04/20 03:41:12;;;;;;;5.65;3.25;;;;;;;;;;5047505;28;20067;-74
2023/04/20 03:43:37;;;;;;;7.97;2.85;;;;;;;;;;5047788;28;20045;-74
2023/04/20 03:46:04;;;;;;;4.93;2.78;;;;;;;;;;5048218;28;20052;-75
2023/04/20 03:48:29;;;;;;;5.05;2.67;;;;;;;;;;5029274;28;20048;-75
2023/04/20 03:50:55;;;;;;;7.40;3.20;;;;;;;;;;5048161;28;20442;-74
2023/04/20 03:53:22;;;;;;;4.15;3.00;;;;;;;;;;5029893;28;20076;-73
2023/04/20 03:55:48;;;;;;;4.13;2.40;;;;;;;;;;5031581;28;20091;-74
2023/04/20 03:58:14;;;;;;;5.15;2.90;;;;;;;;;;5028901;28;20060;-75
2023/04/20 04:00:40;;;;;;;6.63;2.65;;;;;;;;;;5030061;28;20045;-74
2023/04/20 04:03:06;;;;;;;6.93;2.92;;;;;;;;;;5028930;28;20063;-75
2023/04/20 04:05:32;;;;;;;12.07;3.00;;;;;;;;;;5031164;28;20565;-75
2023/04/20 04:07:58;;;;;;;4.95;2.45;;;;;;;;;;5029915;28;20107;-75
2023/04/20 04:10:24;;;;;;;4.85;2.65;;;;;;;;;;5030073;28;20041;-74
2023/04/20 04:12:50;;;;;;;6.05;3.15;;;;;;;;;;5029970;28;20049;-74
2023/04/20 04:15:18;;;;;;;7.13;2.90;;;;;;;;;;5029226;28;20037;-74
2023/04/20 04:17:44;;;;;;;5.25;2.78;;;;;;;;;;5029599;28;20113;-75
2023/04/20 04:20:11;;;;;;;4.95;2.78;;;;;;;;;;5029403;28;20088;-74
2023/04/20 04:22:37;;;;;;;5.10;2.67;;;;;;;;;;5029361;28;20083;-74
2023/04/20 04:25:03;;;;;;;9.70;2.53;;;;;;;;;;5048406;28;20132;-75
2023/04/20 04:27:33;;;;;;;7.32;2.40;;;;;;;;;;5028692;28;20044;-73
2023/04/20 04:29:59;;;;;;;6.47;2.30;;;;;;;;;;5047456;28;20128;-74
2023/04/20 04:32:25;;;;;;;9.75;2.65;;;;;;;;;;5012098;28;20086;-74
2023/04/20 04:34:52;;;;;;;6.97;2.60;;;;;;;;;;5031208;28;20150;-74
2023/04/20 04:37:18;;;;;;;6.50;2.80;;;;;;;;;;5028717;28;20052;-74
2023/04/20 04:39:45;;;;;;;7.20;2.67;;;;;;;;;;5030040;28;20126;-73
2023/04/20 04:42:11;;;;;;;5.93;2.58;;;;;;;;;;5029878;28;20128;-74
2023/04/20 04:44:38;;;;;;;10.15;2.47;;;;;;;;;;5013283;28;20641;-74
2023/04/20 04:47:04;;;;;;;8.93;2.78;;;;;;;;;;5028894;28;20603;-75
2023/04/20 04:49:31;;;;;;;5.65;2.50;;;;;;;;;;5028961;28;20505;-74
2023/04/20 04:51:57;;;;;;;5.85;2.60;;;;;;;;;;5029353;28;20052;-72
2023/04/20 04:54:23;;;;;;;6.60;2.53;;;;;;;;;;5028465;28;20052;-74
2023/04/20 04:56:49;;;;;;;4.80;2.70;;;;;;;;;;5047424;28;20219;-73
2023/04/20 04:59:15;;;;;;;10.52;3.03;;;;;;;;;;5046782;28;20175;-72
2023/04/20 05:01:41;;;;;;;5.65;2.78;;;;;;;;;;5045790;28;20048;-73
2023/04/20 05:04:07;;;;;;;10.15;2.90;;;;;;;;;;5029461;28;20049;-72
2023/04/20 05:06:33;;;;;;;7.47;2.70;;;;;;;;;;5027344;28;20045;-74
2023/04/20 05:08:59;;;;;;;4.97;2.63;;;;;;;;;;5029379;28;20447;-75
2023/04/20 05:11:25;;;;;;;5.38;2.60;;;;;;;;;;5010476;28;20390;-73
2023/04/20 05:13:51;;;;;;;8.70;3.30;;;;;;;;;;5047205;28;20132;-74
2023/04/20 05:16:18;;;;;;;4.75;3.10;;;;;;;;;;5027796;28;20132;-73
2023/04/20 05:18:43;;;;;;;12.68;3.40;;;;;;;;;;5028667;28;20045;-73
2023/04/20 05:21:10;;;;;;;6.30;3.10;;;;;;;;;;5028235;28;20067;-74
2023/04/20 05:23:36;;;;;;;5.30;2.95;;;;;;;;;;5028513;28;20057;-73
2023/04/20 05:26:02;;;;;;;10.82;3.60;;;;;;;;;;5029140;28;20056;-74
2023/04/20 05:28:28;;;;;;;8.50;3.20;;;;;;;;;;5027427;28;20138;-74
2023/04/20 05:30:54;;;;;;;8.57;3.30;;;;;;;;;;5046081;28;20083;-73
2023/04/20 05:33:20;;;;;;;5.50;2.90;;;;;;;;;;5045245;28;20379;-73
2023/04/20 05:35:46;;;;;;;7.20;3.17;;;;;;;;;;5029739;28;20609;-73
2023/04/20 05:38:12;;;;;;;6.00;3.22;;;;;;;;;;5045197;28;20048;-74
2023/04/20 05:40:38;;;;;;;6.78;3.55;;;;;;;;;;5047278;28;20416;-74
2023/04/20 05:43:04;;;;;;;9.68;2.92;;;;;;;;;;5028652;28;20055;-73
2023/04/20 05:45:33;;;;;;;10.05;3.25;;;;;;;;;;5028350;28;20063;-73
2023/04/20 05:47:59;;;;;;;6.35;3.30;;;;;;;;;;5027732;28;20060;-73
2023/04/20 05:50:25;;;;;;;7.05;3.00;;;;;;;;;;5025955;28;20394;-72
2023/04/20 05:52:51;;;;;;;7.88;3.50;;;;;;;;;;5028312;28;20052;-73
2023/04/20 05:55:17;;;;;;;9.07;3.20;;;;;;;;;;5045041;28;20037;-73
2023/04/20 05:57:43;;;;;;;5.25;3.40;;;;;;;;;;5028260;28;20045;-74
2023/04/20 06:00:10;;;;;;;4.82;3.10;;;;;;;;;;5027847;28;20770;-73
2023/04/20 06:02:36;;;;;;;7.97;3.42;;;;;;;;;;5045988;28;20053;-74
2023/04/20 06:05:02;;;;;;;7.43;3.53;;;;;;;;;;5028905;28;20037;-75
2023/04/20 06:07:28;;;;;;;8.13;3.30;;;;;;;;;;5026525;28;20037;-74
2023/04/20 06:09:54;;;;;;;6.88;3.58;;;;;;;;;;5012325;28;20041;-74
2023/04/20 06:12:20;;;;;;;8.02;3.78;;;;;;;;;;5045444;28;20044;-73
2023/04/20 06:14:46;;;;;;;8.20;3.60;;;;;;;;;;5045479;28;20041;-74
2023/04/20 06:17:12;;;;;;;7.38;3.55;;;;;;;;;;5044612;28;20037;-73
2023/04/20 06:19:38;;;;;;;7.20;3.72;;;;;;;;;;5028231;28;20033;-74
2023/04/20 06:22:07;;;;;;;5.57;3.05;;;;;;;;;;5027644;28;20041;-73
2023/04/20 06:24:34;;;;;;;6.70;3.30;;;;;;;;;;5026753;28;20045;-75
2023/04/20 06:27:00;;;;;;;6.90;3.35;;;;;;;;;;5045790;28;20056;-73
2023/04/20 06:29:27;;;;;;;6.88;3.55;;;;;;;;;;5026513;28;20672;-75
2023/04/20 06:31:53;;;;;;;6.20;3.20;;;;;;;;;;5026793;28;20401;-74
2023/04/20 06:34:19;;;;;;;9.13;3.40;;;;;;;;;;5045470;28;20509;-74
2023/04/20 06:36:45;;;;;;;6.22;3.20;;;;;;;;;;5045423;28;20060;-74
2023/04/20 06:39:11;;;;;;;4.65;3.40;;;;;;;;;;5044867;28;20464;-74
2023/04/20 06:41:37;;;;;;;5.25;3.03;;;;;;;;;;5043893;28;20042;-74
2023/04/20 06:44:04;;;;;;;12.00;3.70;;;;;;;;;;5045202;28;20128;-74
2023/04/20 06:46:30;;;;;;;9.48;3.97;;;;;;;;;;5044182;28;20053;-75
2023/04/20 06:48:56;;;;;;;9.13;4.68;;;;;;;;;;5027552;28;20049;-74
2023/04/20 06:51:22;;;;;;;7.95;5.30;;;;;;;;;;5024939;28;20135;-74
2023/04/20 06:53:48;;;;;;;7.50;3.80;;;;;;;;;;5027640;28;20742;-74
2023/04/20 06:56:14;;;;;;;10.10;3.67;;;;;;;;;;5044028;28;20048;-74
2023/04/20 06:58:40;;;;;;;6.78;3.83;;;;;;;;;;5027247;28;20053;-74
2023/04/20 07:01:06;;;;;;;6.97;3.80;;;;;;;;;;5043509;28;20051;-74
2023/04/20 07:03:32;;;;;;;7.03;3.88;;;;;;;;;;5025820;28;20041;-75
2023/04/20 07:05:58;;;;;;;6.00;4.18;;;;;;;;;;5027013;28;20448;-75
2023/04/20 07:08:24;;;;;;;7.70;4.20;;;;;;;;;;5025998;28;20400;-75
2023/04/20 07:10:50;;;;;;;7.63;3.97;;;;;;;;;;5027659;28;20127;-75
2023/04/20 07:13:16;;;;;;;8.98;4.20;;;;;;;;;;5043692;28;20033;-75
2023/04/20 07:15:44;;;;;;;6.78;4.00;;;;;;;;;;5027107;28;20056;-74
2023/04/20 07:18:10;;;;;;;8.35;4.35;;;;;;;;;;5026098;28;20062;-75
2023/04/20 07:20:36;;;;;;;9.38;4.40;;;;;;;;;;5027152;28;20558;-75
2023/04/20 07:23:02;;;;;;;9.85;4.50;;;;;;;;;;5026156;28;20055;-74
2023/04/20 07:25:30;;;;;;;9.43;4.85;;;;;;;;;;5043830;28;20064;-74
2023/04/20 07:27:56;;;;;;;9.95;4.68;;;;;;;;;;5027056;28;20051;-74
2023/04/20 07:30:22;;;;;;;9.07;4.80;;;;;;;;;;5025859;28;20030;-73
2023/04/20 07:32:48;;;;;;;9.32;4.78;;;;;;;;;;5044735;28;20029;-75
2023/04/20 07:35:15;;;;;;;9.23;4.80;;;;;;;;;;5026926;28;20056;-75
2023/04/20 07:37:41;;;;;;;7.43;4.45;;;;;;;;;;5027227;28;20130;-73
2023/04/20 07:40:07;;;;;;;9.27;4.65;;;;;;;;;;5043930;28;20053;-75
2023/04/20 07:42:35;;;;;;;12.05;5.20;;;;;;;;;;5043499;28;20128;-74
2023/04/20 07:45:02;;;;;;;13.00;7.28;;;;;;;;;;5027011;28;20477;-74
2023/04/20 07:47:28;;;;;;;11.88;8.38;;;;;;;;;;5042730;28;20622;-75
2023/04/20 07:49:54;;;;;;;9.80;7.00;;;;;;;;;;5044138;28;20130;-75
2023/04/20 07:52:20;;;;;;;10.45;6.57;;;;;;;;;;5043049;28;20045;-74
2023/04/20 07:54:45;;;;;;;23.65;14.45;;;;;;;;;;5027122;28;20057;-75
2023/04/20 07:57:12;;;;;;;16.67;11.15;;;;;;;;;;5026721;28;20063;-74
2023/04/20 07:59:39;;;;;;;27.33;20.70;;;;;;;;;;5044450;28;20501;-74
2023/04/20 08:02:05;;;;;;;22.58;14.77;;;;;;;;;;5031749;28;20045;-74
2023/04/20 08:04:31;;;;;;;19.20;14.10;;;;;;;;;;5025702;28;20041;-74
2023/04/20 08:06:57;;;;;;;7.95;6.05;;;;;;;;;;5026681;28;20057;-74
2023/04/20 08:09:25;;;;;;;33.20;29.42;;;;;;;;;;5042914;28;20130;-74
2023/04/20 08:11:51;;;;;;;9.70;7.00;;;;;;;;;;5043736;28;20048;-74
2023/04/20 08:14:17;;;;;;;6.93;4.80;;;;;;;;;;5027565;28;20056;-74
2023/04/20 08:16:43;;;;;;;9.60;7.03;;;;;;;;;;5029900;28;20382;-75
2023/04/20 08:19:09;;;;;;;16.63;10.93;;;;;;;;;;5047474;28;20048;-75
2023/04/20 08:21:39;;;;;;;12.57;8.98;;;;;;;;;;5028041;28;20106;-75
2023/04/20 08:24:05;;;;;;;13.93;8.55;;;;;;;;;;5048040;28;20049;-74
2023/04/20 08:26:31;;;;;;;19.38;8.45;;;;;;;;;;5029102;28;20138;-74
2023/04/20 08:28:58;;;;;;;12.27;8.52;;;;;;;;;;5029781;28;20037;-75
2023/04/20 08:31:24;;;;;;;13.65;7.60;;;;;;;;;;5046335;28;20045;-74
2023/04/20 08:33:50;;;;;;;9.73;5.38;;;;;;;;;;5029650;28;20044;-75
2023/04/20 08:36:16;;;;;;;7.95;4.55;;;;;;;;;;5029289;28;20519;-74
2023/04/20 08:38:42;;;;;;;6.10;4.25;;;;;;;;;;5028627;28;20033;-75
2023/04/20 08:41:10;;;;;;;8.30;5.75;;;;;;;;;;5047322;28;20374;-74
2023/04/20 08:43:36;;;;;;;8.32;5.20;;;;;;;;;;5046855;28;20413;-75
2023/04/20 08:46:02;;;;;;;10.02;6.47;;;;;;;;;;5030266;28;20045;-74
2023/04/20 08:48:34;;;;;;;14.40;11.32;;;;;;;;;;5046118;28;20048;-75
2023/04/20 08:51:00;;;;;;;12.65;8.50;;;;;;;;;;5047624;28;20045;-75
2023/04/20 08:53:26;;;;;;;10.02;6.13;;;;;;;;;;5047228;28;20048;-75
2023/04/20 08:55:55;;;;;;;15.00;7.25;;;;;;;;;;5047461;28;20120;-76
2023/04/20 08:58:21;;;;;;;;;;;;;;;;;;5030077;28;20151;-75
2023/04/20 09:00:50;;;;;;;10.30;7.00;;;;;;;;;;5044927;28;20437;-75
2023/04/20 09:03:16;;;;;;;9.98;6.43;;;;;;;;;;5028573;28;20045;-75
2023/04/20 09:05:43;;;;;;;10.57;6.18;;;;;;;;;;5029290;28;20041;-74
2023/04/20 09:08:10;;;;;;;11.18;5.40;;;;;;;;;;5028220;28;20076;-75
2023/04/20 09:10:40;;;;;;;10.10;5.63;;;;;;;;;;5028167;28;20049;-75
2023/04/20 09:13:06;;;;;;;9.88;5.80;;;;;;;;;;5028474;28;20037;-75
2023/04/20 09:15:32;;;;;;;10.30;5.57;;;;;;;;;;5029789;28;20516;-74
2023/04/20 09:17:58;;;;;;;9.38;5.75;;;;;;;;;;5027282;28;20091;-75
2023/04/20 09:20:31;;;;;;;10.07;5.35;;;;;;;;;;5028342;28;20156;-75
2023/04/20 09:22:57;;;;;;;11.95;5.32;;;;;;;;;;5010316;28;20053;-75
2023/04/20 09:25:27;;;;;;;7.43;4.97;;;;;;;;;;5028266;28;20144;-75
2023/04/20 09:27:57;;;;;;;8.93;5.63;;;;;;;;;;5045847;28;20826;-75
2023/04/20 09:30:23;;;;;;;12.02;6.05;;;;;;;;;;5028927;28;20040;-76
2023/04/20 09:32:49;;;;;;;9.77;5.43;;;;;;;;;;5028964;28;20033;-75
2023/04/20 09:35:22;;;;;;;11.75;6.10;;;;;;;;;;5011636;28;20063;-75
2023/04/20 09:37:48;;;;;;;15.98;6.68;;;;;;;;;;5028466;28;20703;-75
2023/04/20 09:40:15;;;;;;;11.02;6.63;;;;;;;;;;5026723;28;20060;-76
2023/04/20 09:42:42;;;;;;;8.60;5.97;;;;;;;;;;5028191;28;20045;-76
2023/04/20 09:45:08;;;;;;;9.18;6.10;;;;;;;;;;5011542;28;20029;-75
2023/04/20 09:47:36;;;;;;;9.90;5.88;;;;;;;;;;5028001;28;20047;-75
2023/04/20 09:50:03;;;;;;;8.52;5.45;;;;;;;;;;5046016;28;20045;-75
2023/04/20 09:52:29;;;;;;;11.95;6.03;;;;;;;;;;5026566;28;20044;-75
2023/04/20 09:54:55;;;;;;;9.43;5.40;;;;;;;;;;5012394;28;20045;-75
2023/04/20 09:57:21;;;;;;;10.65;6.43;;;;;;;;;;5027088;28;20041;-75
2023/04/20 09:59:48;;;;;;;8.63;5.72;;;;;;;;;;5028130;28;20048;-76
2023/04/20 10:02:14;;;;;;;8.75;6.00;;;;;;;;;;5009945;28;20049;-75
2023/04/20 10:04:53;;;;;;;8.25;6.00;;;;;;;;;;5028337;28;20041;-75
2023/04/20 10:07:32;;;;;;;9.57;5.80;;;;;;;;;;5027626;28;20053;-76
2023/04/20 10:10:11;;;;;;;11.63;5.78;;;;;;;;;;5045193;28;20455;-75
2023/04/20 10:12:47;;;;;;;15.93;9.63;;;;;;;;;;5027456;28;20067;-75
2023/04/20 10:15:13;;;;;;;9.93;6.15;;;;;;;;;;5027487;28;20084;-75
2023/04/20 10:17:39;;;;;;;10.57;6.22;;;;;;;;;;5027347;28;20528;-75
2023/04/20 10:20:05;;;;;;;12.18;5.95;;;;;;;;;;5026993;28;20036;-75
2023/04/20 10:22:32;;;;;;;10.00;6.13;;;;;;;;;;5026479;28;20057;-74
2023/04/20 10:24:59;;;;;;;11.02;6.15;;;;;;;;;;5045952;28;20052;-74
2023/04/20 10:27:25;;;;;;;8.85;5.80;;;;;;;;;;5026616;28;20200;-75
2023/04/20 10:29:51;;;;;;;10.95;6.45;;;;;;;;;;5028213;28;20060;-75
2023/04/20 10:32:21;;;;;;;9.65;6.25;;;;;;;;;;5026162;28;20053;-75
2023/04/20 10:34:47;;;;;;;11.10;6.50;;;;;;;;;;5028856;28;20049;-74
2023/04/20 10:37:14;;;;;;;8.73;6.30;;;;;;;;;;5026703;28;20072;-75
2023/04/20 10:39:47;;;;;;;9.15;6.20;;;;;;;;;;5028148;28;20033;-75
2023/04/20 10:42:13;;;;;;;7.80;5.97;;;;;;;;;;5025209;28;20493;-76
2023/04/20 10:44:52;;;;;;;9.85;6.43;;;;;;;;;;5026283;28;20044;-74
2023/04/20 10:47:26;;;;;;;11.02;6.60;;;;;;;;;;5027455;28;20055;-75
2023/04/20 10:49:52;;;;;;;8.98;6.57;;;;;;;;;;5026849;28;20048;-75
2023/04/20 10:52:31;;;;;;;8.95;6.05;;;;;;;;;;5027977;28;20061;-74
2023/04/20 10:54:57;;;;;;;;;;;;;;;;;;5027599;28;20049;-75
2023/04/20 10:57:23;;;;;;;8.40;6.18;;;;;;;;;;5026652;28;19928;-74
2023/04/20 10:59:49;;;;;;;11.98;7.10;;;;;;;;;;5026527;28;20107;-75
2023/04/20 11:02:15;;;;;;;11.02;7.18;;;;;;;;;;5043087;28;20045;-74
2023/04/20 11:04:41;;;;;;;11.23;7.20;;;;;;;;;;5027576;28;20037;-76
2023/04/20 11:07:08;;;;;;;10.65;6.97;;;;;;;;;;5025963;28;20075;-75
2023/04/20 11:09:37;;;;;;;12.52;7.70;;;;;;;;;;5027087;28;20063;-76
2023/04/20 11:12:07;;;;;;;12.85;7.35;;;;;;;;;;5033726;28;20041;-75
2023/04/20 11:14:34;;;;;;;10.65;7.40;;;;;;;;;;5043048;28;20306;-75
2023/04/20 11:17:00;;;;;;;11.48;7.90;;;;;;;;;;5026853;28;20049;-76
2023/04/20 11:19:36;;;;;;;12.48;7.50;;;;;;;;;;5025653;28;20120;-75
2023/04/20 11:22:02;;;;;;;12.68;8.10;;;;;;;;;;5044340;28;20492;-74
2023/04/20 11:24:29;;;;;;;11.70;8.27;;;;;;;;;;5025098;28;20064;-75
2023/04/20 11:26:56;;;;;;;13.20;7.70;;;;;;;;;;5027309;28;20056;-75
2023/04/20 11:29:49;;;;;;;10.10;7.50;;;;;;;;;;5027080;28;20053;-75
2023/04/20 11:32:17;;;;;;;10.98;8.00;;;;;;;;;;5022396;28;20891;-76
2023/04/20 11:34:43;;;;;;;11.48;7.45;;;;;;;;;;5045351;28;20048;-75
2023/04/20 11:37:12;;;;;;;12.35;7.45;;;;;;;;;;5043374;28;20047;-75
2023/04/20 11:39:38;;;;;;;;;;;;;;;;;;5028237;28;20057;-75
2023/04/20 11:42:05;;;;;;;14.02;8.15;;;;;;;;;;5026479;28;19931;-75
2023/04/20 11:44:31;;;;;;;12.38;7.90;;;;;;;;;;5044854;28;20048;-75
2023/04/20 11:46:57;;;;;;;14.98;8.77;;;;;;;;;;5044750;28;20118;-76
2023/04/20 11:49:24;;;;;;;11.75;7.93;;;;;;;;;;5028601;28;20049;-76
2023/04/20 11:51:50;;;;;;;13.07;8.07;;;;;;;;;;5048136;28;20053;-75
2023/04/20 11:54:20;;;;;;;13.07;8.27;;;;;;;;;;5029012;28;20564;-75
2023/04/20 11:56:46;;;;;;;15.38;9.40;;;;;;;;;;5018518;28;20060;-74
2023/04/20 11:59:14;;;;;;;14.55;10.30;;;;;;;;;;5028811;28;20452;-76
2023/04/20 12:01:40;;;;;;;13.50;8.57;;;;;;;;;;5011268;28;20045;-75
2023/04/20 12:04:06;;;;;;;13.23;8.45;;;;;;;;;;5014013;28;20073;-75
2023/04/20 12:06:32;;;;;;;16.27;9.52;;;;;;;;;;5029625;28;20064;-75
2023/04/20 12:08:59;;;;;;;13.35;8.68;;;;;;;;;;5030550;28;20053;-75
2023/04/20 12:11:25;;;;;;;13.23;9.02;;;;;;;;;;5028333;28;20057;-76
2023/04/20 12:13:52;;;;;;;13.43;9.13;;;;;;;;;;5030365;28;20049;-75
2023/04/20 12:16:18;;;;;;;16.98;9.43;;;;;;;;;;5034511;28;20052;-75
2023/04/20 12:18:47;;;;;;;16.38;9.27;;;;;;;;;;5030068;28;20690;-75
2023/04/20 12:21:13;;;;;;;;;;;;;;;;;;5043492;28;20111;-75
2023/04/20 12:23:39;;;;;;;12.40;8.60;;;;;;;;;;5013883;28;20367;-75
2023/04/20 12:26:08;;;;;;;14.07;9.35;;;;;;;;;;5028863;28;20041;-75
2023/04/20 12:28:34;;;;;;;;;;;;;;;;;;5012640;28;20053;-75
2023/04/20 12:31:01;;;;;;;11.27;9.07;;;;;;;;;;5028315;28;20265;-76
2023/04/20 12:33:27;;;;;;;13.93;9.85;;;;;;;;;;5029689;28;20076;-76
2023/04/20 12:35:53;;;;;;;12.93;9.13;;;;;;;;;;5031104;28;20798;-76
2023/04/20 12:38:19;;;;;;;11.68;8.77;;;;;;;;;;5029120;28;20044;-76
2023/04/20 12:40:45;;;;;;;11.60;8.65;;;;;;;;;;5030499;28;20051;-76
2023/04/20 12:43:11;;;;;;;12.98;8.75;;;;;;;;;;5028559;28;20056;-76
2023/04/20 12:45:37;;;;;;;11.27;8.55;;;;;;;;;;5029989;28;20134;-76
2023/04/20 12:48:03;;;;;;;13.07;8.13;;;;;;;;;;5028087;28;20515;-76
2023/04/20 12:50:29;;;;;;;13.63;8.13;;;;;;;;;;5029297;28;20052;-76
2023/04/20 12:52:57;;;;;;;16.25;8.98;;;;;;;;;;5028596;28;20051;-76
2023/04/20 12:55:23;;;;;;;12.30;8.87;;;;;;;;;;5029519;28;20435;-76
2023/04/20 12:57:49;;;;;;;12.05;8.55;;;;;;;;;;5029489;28;20049;-76
2023/04/20 13:00:15;;;;;;;14.85;8.70;;;;;;;;;;5027469;28;20431;-76
2023/04/20 13:02:41;;;;;;;11.18;8.13;;;;;;;;;;5047174;28;20095;-76
2023/04/20 13:05:07;;;;;;;15.70;8.65;;;;;;;;;;5028849;28;20056;-76
2023/04/20 13:07:33;;;;;;;10.45;8.20;;;;;;;;;;5046874;28;20554;-77
2023/04/20 13:09:59;;;;;;;11.55;8.27;;;;;;;;;;5027842;28;20420;-75
2023/04/20 13:12:25;;;;;;;11.52;8.02;;;;;;;;;;5029397;28;20139;-76
2023/04/20 13:14:52;;;;;;;13.15;7.95;;;;;;;;;;5028439;28;20170;-75
2023/04/20 13:17:18;;;;;;;13.25;8.30;;;;;;;;;;5028073;28;20056;-76
2023/04/20 13:19:46;;;;;;;11.82;7.72;;;;;;;;;;5047429;28;20048;-77
2023/04/20 13:22:12;;;;;;;13.85;8.43;;;;;;;;;;5028590;28;20471;-76
2023/04/20 13:24:38;;;;;;;11.52;8.55;;;;;;;;;;5028846;28;20052;-76
2023/04/20 13:27:04;;;;;;;11.68;7.93;;;;;;;;;;5027617;28;20079;-76
2023/04/20 13:29:30;;;;;;;13.57;7.75;;;;;;;;;;5028825;28;20041;-76
2023/04/20 13:31:56;;;;;;;12.05;7.82;;;;;;;;;;5046558;28;20590;-76
2023/04/20 13:34:22;;;;;;;12.50;7.93;;;;;;;;;;5046436;28;20106;-77
2023/04/20 13:36:48;;;;;;;12.02;8.40;;;;;;;;;;5029336;28;20081;-77
2023/04/20 13:39:16;;;;;;;12.10;8.00;;;;;;;;;;5027862;28;20503;-75
2023/04/20 13:41:42;;;;;;;12.18;8.02;;;;;;;;;;5029612;28;20091;-76
2023/04/20 13:44:14;;;;;;;15.15;8.00;;;;;;;;;;5027541;28;20033;-75
2023/04/20 13:46:40;;;;;;;11.70;8.50;;;;;;;;;;5028858;28;20499;-76
2023/04/20 13:49:06;;;;;;;15.18;9.60;;;;;;;;;;5045841;28;20068;-76
2023/04/20 13:51:32;;;;;;;9.65;8.30;;;;;;;;;;5046215;28;20136;-76
2023/04/20 13:53:58;;;;;;;12.68;8.13;;;;;;;;;;5028650;28;20041;-76
2023/04/20 13:56:24;;;;;;;11.48;7.90;;;;;;;;;;5045539;28;20127;-76
2023/04/20 13:58:50;;;;;;;13.38;8.38;;;;;;;;;;5046244;28;20559;-76
2023/04/20 14:01:16;;;;;;;12.45;8.57;;;;;;;;;;5045635;28;20134;-76
2023/04/20 14:03:42;;;;;;;13.95;8.27;;;;;;;;;;5028630;28;20041;-76
2023/04/20 14:06:09;;;;;;;10.65;7.85;;;;;;;;;;5027383;28;20053;-76
2023/04/20 14:08:35;;;;;;;9.88;8.25;;;;;;;;;;5028442;28;20496;-76
2023/04/20 14:11:01;;;;;;;15.95;7.90;;;;;;;;;;5027801;28;20045;-75
2023/04/20 14:13:27;;;;;;;12.38;8.68;;;;;;;;;;5027455;28;20079;-76
2023/04/20 14:15:53;;;;;;;14.63;8.05;;;;;;;;;;5028545;28;20484;-75
2023/04/20 14:18:19;;;;;;;11.68;8.45;;;;;;;;;;5010698;28;20390;-74
2023/04/20 14:20:45;;;;;;;9.48;7.97;;;;;;;;;;5014056;28;20053;-76
2023/04/20 14:23:11;;;;;;;10.50;8.13;;;;;;;;;;5044647;28;20041;-76
2023/04/20 14:25:37;;;;;;;8.75;7.45;;;;;;;;;;5028464;28;20647;-77
2023/04/20 14:28:04;;;;;;;9.23;8.13;;;;;;;;;;5027432;28;20124;-76
2023/04/20 14:30:30;;;;;;;14.43;8.20;;;;;;;;;;5026910;28;20494;-76
2023/04/20 14:32:56;;;;;;;18.17;8.20;;;;;;;;;;5027933;28;20409;-75
2023/04/20 14:35:23;;;;;;;10.52;8.07;;;;;;;;;;5027419;28;20040;-75